Accueil
METAR-TAF:

METAR-TAF

Aéroports :

Newport, Vermont, États-Unis

latitude: 44-53-20N, longitude: 072-13-45W, altitude: 283 m

Observation

Le bulletin a été fait il y a 34 minutes, à 00:35 UTC
Vent 14 kt de ouest/sud-ouest avec des rafales jusqu'à 20 kt
Température -2°C
Humidité 86%
Pression 998 hPa
Visibilité: 11.3 km
Ciel couvert à une hauteur de 1200 ft

METAR: KEFK 180035Z AUTO 25014G20KT 7SM OVC012 M02/M04 A2947 RMK AO2 T10231039

Heure: 20:09 (01:09 UTC)


TAF: absent

Observations et prévisions météorologiques de plus de 4000 aéroports (messages METAR et TAF).

Les stations disponibles sont représentées par des disques jaunes et rouges sur la carte.

Passer la souris dessus pour voir le nom de la station.

Cliquer dessus pour voir les observations et prévisions météorologiques.

Pour changer de carte: cliquez sur les boutons verts avec une croix noire pour zoomer, sur le bouton vert avec un tiret pour effectuer un zoom arrière, ou sur les flèches vertes pour les cartes adjacentes.


METAR-TAF: